sensor_id;sensor_type;location;lat;lon;timestamp;temperature;humidity
2611;DHT22;5612;51.134;17.058;2023-06-14T00:00:49;12.90;1.00
2611;DHT22;5612;51.134;17.058;2023-06-14T00:03:20;12.90;99.90
2611;DHT22;5612;51.134;17.058;2023-06-14T00:05:51;12.80;95.50
2611;DHT22;5612;51.134;17.058;2023-06-14T00:08:20;12.80;36.50
2611;DHT22;5612;51.134;17.058;2023-06-14T00:10:50;12.80;1.00
2611;DHT22;5612;51.134;17.058;2023-06-14T00:13:19;12.80;97.20
2611;DHT22;5612;51.134;17.058;2023-06-14T00:15:47;12.60;99.90
2611;DHT22;5612;51.134;17.058;2023-06-14T00:18:16;12.60;99.90
2611;DHT22;5612;51.134;17.058;2023-06-14T00:20:45;12.60;99.90
2611;DHT22;5612;51.134;17.058;2023-06-14T00:23:15;12.60;99.90
2611;DHT22;5612;51.134;17.058;2023-06-14T00:25:44;12.60;99.90
2611;DHT22;5612;51.134;17.058;2023-06-14T00:28:14;12.60;99.90
2611;DHT22;5612;51.134;17.058;2023-06-14T00:30:42;12.50;99.90
2611;DHT22;5612;51.134;17.058;2023-06-14T00:33:14;12.50;99.90
2611;DHT22;5612;51.134;17.058;2023-06-14T00:35:42;12.40;99.90
2611;DHT22;5612;51.134;17.058;2023-06-14T00:38:11;12.40;1.00
2611;DHT22;5612;51.134;17.058;2023-06-14T00:40:42;12.40;1.00
2611;DHT22;5612;51.134;17.058;2023-06-14T00:43:11;12.30;99.90
2611;DHT22;5612;51.134;17.058;2023-06-14T00:45:40;12.30;99.90
2611;DHT22;5612;51.134;17.058;2023-06-14T00:48:09;12.30;99.90
2611;DHT22;5612;51.134;17.058;2023-06-14T00:50:39;12.30;99.90
2611;DHT22;5612;51.134;17.058;2023-06-14T00:53:09;12.10;1.00
2611;DHT22;5612;51.134;17.058;2023-06-14T00:55:37;12.00;99.90
2611;DHT22;5612;51.134;17.058;2023-06-14T00:58:09;12.00;1.00
2611;DHT22;5612;51.134;17.058;2023-06-14T01:00:38;12.10;1.00
2611;DHT22;5612;51.134;17.058;2023-06-14T01:03:07;12.00;1.00
2611;DHT22;5612;51.134;17.058;2023-06-14T01:05:40;12.00;1.00
2611;DHT22;5612;51.134;17.058;2023-06-14T01:08:21;12.00;99.90
2611;DHT22;5612;51.134;17.058;2023-06-14T01:11:01;11.90;1.00
2611;DHT22;5612;51.134;17.058;2023-06-14T01:13:35;11.70;15.20
2611;DHT22;5612;51.134;17.058;2023-06-14T01:16:05;11.80;99.90
2611;DHT22;5612;51.134;17.058;2023-06-14T01:18:36;11.80;99.90
2611;DHT22;5612;51.134;17.058;2023-06-14T01:21:05;11.80;99.90
2611;DHT22;5612;51.134;17.058;2023-06-14T01:23:37;11.80;99.90
2611;DHT22;5612;51.134;17.058;2023-06-14T01:26:06;11.80;1.00
2611;DHT22;5612;51.134;17.058;2023-06-14T01:28:35;11.80;10.00
2611;DHT22;5612;51.134;17.058;2023-06-14T01:31:06;11.70;99.90
2611;DHT22;5612;51.134;17.058;2023-06-14T01:33:36;11.70;99.90
2611;DHT22;5612;51.134;17.058;2023-06-14T01:36:07;11.70;99.90
2611;DHT22;5612;51.134;17.058;2023-06-14T01:38:38;11.70;99.90
2611;DHT22;5612;51.134;17.058;2023-06-14T01:41:08;11.70;99.90
2611;DHT22;5612;51.134;17.058;2023-06-14T01:43:38;11.50;99.90
2611;DHT22;5612;51.134;17.058;2023-06-14T01:46:08;11.60;99.90
2611;DHT22;5612;51.134;17.058;2023-06-14T01:48:38;11.60;99.90
2611;DHT22;5612;51.134;17.058;2023-06-14T01:51:07;11.70;99.90
2611;DHT22;5612;51.134;17.058;2023-06-14T01:53:36;11.70;99.90
2611;DHT22;5612;51.134;17.058;2023-06-14T01:56:06;11.60;99.90
2611;DHT22;5612;51.134;17.058;2023-06-14T01:58:35;11.60;99.90
2611;DHT22;5612;51.134;17.058;2023-06-14T02:01:04;11.60;99.90
2611;DHT22;5612;51.134;17.058;2023-06-14T02:03:34;11.60;99.90
2611;DHT22;5612;51.134;17.058;2023-06-14T02:06:06;11.60;99.90
2611;DHT22;5612;51.134;17.058;2023-06-14T02:08:35;11.60;99.90
2611;DHT22;5612;51.134;17.058;2023-06-14T02:13:46;11.50;99.90
2611;DHT22;5612;51.134;17.058;2023-06-14T02:16:15;11.50;99.90
2611;DHT22;5612;51.134;17.058;2023-06-14T02:18:44;11.50;99.90
2611;DHT22;5612;51.134;17.058;2023-06-14T02:21:13;11.50;99.90
2611;DHT22;5612;51.134;17.058;2023-06-14T02:23:42;11.40;1.00
2611;DHT22;5612;51.134;17.058;2023-06-14T02:26:11;11.50;1.00
2611;DHT22;5612;51.134;17.058;2023-06-14T02:28:40;11.50;1.00
2611;DHT22;5612;51.134;17.058;2023-06-14T02:31:10;11.60;1.00
2611;DHT22;5612;51.134;17.058;2023-06-14T02:33:39;11.70;1.00
2611;DHT22;5612;51.134;17.058;2023-06-14T02:36:08;11.80;1.00
2611;DHT22;5612;51.134;17.058;2023-06-14T02:38:36;11.90;1.00
2611;DHT22;5612;51.134;17.058;2023-06-14T02:41:05;11.90;1.00
2611;DHT22;5612;51.134;17.058;2023-06-14T02:43:34;11.80;99.90
2611;DHT22;5612;51.134;17.058;2023-06-14T02:46:03;11.80;99.90
2611;DHT22;5612;51.134;17.058;2023-06-14T02:48:34;11.80;99.90
2611;DHT22;5612;51.134;17.058;2023-06-14T02:51:03;11.80;99.90
2611;DHT22;5612;51.134;17.058;2023-06-14T02:53:36;11.70;99.90
2611;DHT22;5612;51.134;17.058;2023-06-14T02:56:05;11.80;99.90
2611;DHT22;5612;51.134;17.058;2023-06-14T02:58:34;11.80;1.00
2611;DHT22;5612;51.134;17.058;2023-06-14T03:01:03;11.90;1.00
2611;DHT22;5612;51.134;17.058;2023-06-14T03:03:36;11.90;1.00
2611;DHT22;5612;51.134;17.058;2023-06-14T03:06:05;12.00;99.90
2611;DHT22;5612;51.134;17.058;2023-06-14T03:08:35;12.00;1.00
2611;DHT22;5612;51.134;17.058;2023-06-14T03:11:07;12.00;1.00
2611;DHT22;5612;51.134;17.058;2023-06-14T03:13:36;12.00;1.00
2611;DHT22;5612;51.134;17.058;2023-06-14T03:16:06;12.00;1.00
2611;DHT22;5612;51.134;17.058;2023-06-14T03:18:37;12.10;1.00
2611;DHT22;5612;51.134;17.058;2023-06-14T03:21:06;12.10;1.00
2611;DHT22;5612;51.134;17.058;2023-06-14T03:23:36;12.20;1.00
2611;DHT22;5612;51.134;17.058;2023-06-14T03:26:05;12.40;1.00
2611;DHT22;5612;51.134;17.058;2023-06-14T03:28:33;12.40;1.00
2611;DHT22;5612;51.134;17.058;2023-06-14T03:31:02;12.50;99.90
2611;DHT22;5612;51.134;17.058;2023-06-14T03:33:31;12.70;99.90
2611;DHT22;5612;51.134;17.058;2023-06-14T03:36:02;12.70;99.90
2611;DHT22;5612;51.134;17.058;2023-06-14T03:38:31;12.90;99.90
2611;DHT22;5612;51.134;17.058;2023-06-14T03:41:00;13.00;1.00
2611;DHT22;5612;51.134;17.058;2023-06-14T03:43:29;13.10;99.90
2611;DHT22;5612;51.134;17.058;2023-06-14T03:45:58;13.20;99.90
2611;DHT22;5612;51.134;17.058;2023-06-14T03:48:27;13.30;1.00
2611;DHT22;5612;51.134;17.058;2023-06-14T03:50:56;13.40;99.90
2611;DHT22;5612;51.134;17.058;2023-06-14T03:53:29;13.60;79.90
2611;DHT22;5612;51.134;17.058;2023-06-14T03:55:58;13.80;99.90
2611;DHT22;5612;51.134;17.058;2023-06-14T03:58:27;13.80;53.30
2611;DHT22;5612;51.134;17.058;2023-06-14T04:00:56;13.90;99.90
2611;DHT22;5612;51.134;17.058;2023-06-14T04:03:25;13.90;23.90
2611;DHT22;5612;51.134;17.058;2023-06-14T04:05:57;13.90;99.90
2611;DHT22;5612;51.134;17.058;2023-06-14T04:08:29;14.00;99.90
2611;DHT22;5612;51.134;17.058;2023-06-14T04:10:57;14.00;1.00
2611;DHT22;5612;51.134;17.058;2023-06-14T04:13:26;14.00;1.00
2611;DHT22;5612;51.134;17.058;2023-06-14T04:15:55;13.90;99.90
2611;DHT22;5612;51.134;17.058;2023-06-14T04:18:24;13.80;99.90
2611;DHT22;5612;51.134;17.058;2023-06-14T04:20:54;13.90;99.90
2611;DHT22;5612;51.134;17.058;2023-06-14T04:23:23;14.00;1.00
2611;DHT22;5612;51.134;17.058;2023-06-14T04:25:54;14.20;99.90
2611;DHT22;5612;51.134;17.058;2023-06-14T04:28:29;14.30;99.90
2611;DHT22;5612;51.134;17.058;2023-06-14T04:30:58;14.40;99.90
2611;DHT22;5612;51.134;17.058;2023-06-14T04:33:29;14.50;1.00
2611;DHT22;5612;51.134;17.058;2023-06-14T04:35:59;14.70;99.90
2611;DHT22;5612;51.134;17.058;2023-06-14T04:38:28;14.80;99.90
2611;DHT22;5612;51.134;17.058;2023-06-14T04:41:00;15.00;1.00
2611;DHT22;5612;51.134;17.058;2023-06-14T04:43:29;15.10;99.90
2611;DHT22;5612;51.134;17.058;2023-06-14T04:45:59;15.00;99.90
2611;DHT22;5612;51.134;17.058;2023-06-14T04:48:29;14.90;99.90
2611;DHT22;5612;51.134;17.058;2023-06-14T04:50:58;15.00;9.70
2611;DHT22;5612;51.134;17.058;2023-06-14T04:53:27;15.00;1.00
2611;DHT22;5612;51.134;17.058;2023-06-14T04:55:56;14.90;2.90
2611;DHT22;5612;51.134;17.058;2023-06-14T04:58:27;15.00;1.00
2611;DHT22;5612;51.134;17.058;2023-06-14T05:00:56;14.90;99.90
2611;DHT22;5612;51.134;17.058;2023-06-14T05:03:26;15.10;99.90
2611;DHT22;5612;51.134;17.058;2023-06-14T05:06:01;15.20;99.90
2611;DHT22;5612;51.134;17.058;2023-06-14T05:08:29;15.30;99.90
2611;DHT22;5612;51.134;17.058;2023-06-14T05:10:58;15.40;99.90
2611;DHT22;5612;51.134;17.058;2023-06-14T05:13:28;15.50;44.90
2611;DHT22;5612;51.134;17.058;2023-06-14T05:16:00;15.70;30.10
2611;DHT22;5612;51.134;17.058;2023-06-14T05:18:29;15.80;1.00
2611;DHT22;5612;51.134;17.058;2023-06-14T05:20:58;15.80;1.00
2611;DHT22;5612;51.134;17.058;2023-06-14T05:23:29;15.60;15.50
2611;DHT22;5612;51.134;17.058;2023-06-14T05:25:57;15.90;1.00
2611;DHT22;5612;51.134;17.058;2023-06-14T05:28:28;16.10;1.00
2611;DHT22;5612;51.134;17.058;2023-06-14T05:30:58;16.10;1.00
2611;DHT22;5612;51.134;17.058;2023-06-14T05:33:27;16.20;1.00
2611;DHT22;5612;51.134;17.058;2023-06-14T05:35:56;16.20;1.00
2611;DHT22;5612;51.134;17.058;2023-06-14T05:38:25;16.30;1.00
2611;DHT22;5612;51.134;17.058;2023-06-14T05:40:53;16.30;1.00
2611;DHT22;5612;51.134;17.058;2023-06-14T05:43:23;16.40;1.00
2611;DHT22;5612;51.134;17.058;2023-06-14T05:45:53;16.60;1.00
2611;DHT22;5612;51.134;17.058;2023-06-14T05:48:22;16.60;1.00
2611;DHT22;5612;51.134;17.058;2023-06-14T05:50:50;16.80;99.90
2611;DHT22;5612;51.134;17.058;2023-06-14T05:53:19;16.90;99.90
2611;DHT22;5612;51.134;17.058;2023-06-14T05:55:49;17.00;99.90
2611;DHT22;5612;51.134;17.058;2023-06-14T05:58:19;17.20;99.90
2611;DHT22;5612;51.134;17.058;2023-06-14T06:00:47;17.30;99.90
2611;DHT22;5612;51.134;17.058;2023-06-14T06:03:17;17.30;99.90
2611;DHT22;5612;51.134;17.058;2023-06-14T06:05:46;17.40;99.90
2611;DHT22;5612;51.134;17.058;2023-06-14T06:08:15;17.50;99.90
2611;DHT22;5612;51.134;17.058;2023-06-14T06:10:44;17.50;99.90
2611;DHT22;5612;51.134;17.058;2023-06-14T06:13:13;17.50;99.90
2611;DHT22;5612;51.134;17.058;2023-06-14T06:15:42;17.10;99.90
2611;DHT22;5612;51.134;17.058;2023-06-14T06:18:11;17.30;99.90
2611;DHT22;5612;51.134;17.058;2023-06-14T06:20:41;17.60;99.90
2611;DHT22;5612;51.134;17.058;2023-06-14T06:23:11;17.80;99.90
2611;DHT22;5612;51.134;17.058;2023-06-14T06:25:40;18.10;99.90
2611;DHT22;5612;51.134;17.058;2023-06-14T06:28:08;18.50;66.90
2611;DHT22;5612;51.134;17.058;2023-06-14T06:30:38;18.90;9.40
2611;DHT22;5612;51.134;17.058;2023-06-14T06:33:07;19.30;1.00
2611;DHT22;5612;51.134;17.058;2023-06-14T06:35:36;19.30;1.00
2611;DHT22;5612;51.134;17.058;2023-06-14T06:38:06;19.60;1.00
2611;DHT22;5612;51.134;17.058;2023-06-14T06:40:37;19.70;1.00
2611;DHT22;5612;51.134;17.058;2023-06-14T06:43:06;19.60;1.00
2611;DHT22;5612;51.134;17.058;2023-06-14T06:45:35;19.70;1.00
2611;DHT22;5612;51.134;17.058;2023-06-14T06:48:04;19.50;1.00
2611;DHT22;5612;51.134;17.058;2023-06-14T06:50:33;19.50;1.00
2611;DHT22;5612;51.134;17.058;2023-06-14T06:53:02;19.00;9.00
2611;DHT22;5612;51.134;17.058;2023-06-14T06:55:32;18.80;54.90
2611;DHT22;5612;51.134;17.058;2023-06-14T06:58:01;18.80;61.60
2611;DHT22;5612;51.134;17.058;2023-06-14T07:00:32;18.70;25.00
2611;DHT22;5612;51.134;17.058;2023-06-14T07:03:01;18.50;57.00
2611;DHT22;5612;51.134;17.058;2023-06-14T07:05:31;18.40;99.90
2611;DHT22;5612;51.134;17.058;2023-06-14T07:08:00;18.80;99.90
2611;DHT22;5612;51.134;17.058;2023-06-14T07:10:29;19.20;64.30
2611;DHT22;5612;51.134;17.058;2023-06-14T07:12:59;19.70;2.90
2611;DHT22;5612;51.134;17.058;2023-06-14T07:15:28;20.00;1.00
2611;DHT22;5612;51.134;17.058;2023-06-14T07:17:57;20.20;1.00
2611;DHT22;5612;51.134;17.058;2023-06-14T07:20:27;20.50;1.00
2611;DHT22;5612;51.134;17.058;2023-06-14T07:22:56;20.80;1.00
2611;DHT22;5612;51.134;17.058;2023-06-14T07:25:25;21.00;1.00
2611;DHT22;5612;51.134;17.058;2023-06-14T07:27:54;20.80;1.00
2611;DHT22;5612;51.134;17.058;2023-06-14T07:30:24;20.90;1.00
2611;DHT22;5612;51.134;17.058;2023-06-14T07:32:54;21.50;1.00
2611;DHT22;5612;51.134;17.058;2023-06-14T07:35:23;22.40;1.00
2611;DHT22;5612;51.134;17.058;2023-06-14T07:37:52;23.40;1.00
2611;DHT22;5612;51.134;17.058;2023-06-14T07:40:21;24.80;1.00
2611;DHT22;5612;51.134;17.058;2023-06-14T07:42:49;25.50;1.00
2611;DHT22;5612;51.134;17.058;2023-06-14T07:45:18;25.50;1.00
2611;DHT22;5612;51.134;17.058;2023-06-14T07:47:49;25.70;1.00
2611;DHT22;5612;51.134;17.058;2023-06-14T07:50:20;25.60;1.00
2611;DHT22;5612;51.134;17.058;2023-06-14T07:52:49;25.10;1.00
2611;DHT22;5612;51.134;17.058;2023-06-14T07:55:18;24.10;1.00
2611;DHT22;5612;51.134;17.058;2023-06-14T07:57:46;23.50;1.00
2611;DHT22;5612;51.134;17.058;2023-06-14T08:00:16;23.40;1.00
2611;DHT22;5612;51.134;17.058;2023-06-14T08:02:48;22.70;1.00
2611;DHT22;5612;51.134;17.058;2023-06-14T08:05:21;22.80;1.00
2611;DHT22;5612;51.134;17.058;2023-06-14T08:07:51;23.20;1.00
2611;DHT22;5612;51.134;17.058;2023-06-14T08:10:20;23.50;1.00
2611;DHT22;5612;51.134;17.058;2023-06-14T08:12:49;23.50;1.00
2611;DHT22;5612;51.134;17.058;2023-06-14T08:15:18;23.90;1.00
2611;DHT22;5612;51.134;17.058;2023-06-14T08:17:49;24.20;1.00
2611;DHT22;5612;51.134;17.058;2023-06-14T08:20:19;24.60;1.00
2611;DHT22;5612;51.134;17.058;2023-06-14T08:22:48;24.80;1.00
2611;DHT22;5612;51.134;17.058;2023-06-14T08:25:17;24.20;1.00
2611;DHT22;5612;51.134;17.058;2023-06-14T08:27:46;23.70;1.00
2611;DHT22;5612;51.134;17.058;2023-06-14T08:30:15;23.90;1.00
2611;DHT22;5612;51.134;17.058;2023-06-14T08:32:45;24.00;1.00
2611;DHT22;5612;51.134;17.058;2023-06-14T08:35:21;24.10;1.00
2611;DHT22;5612;51.134;17.058;2023-06-14T08:37:50;23.90;1.00
2611;DHT22;5612;51.134;17.058;2023-06-14T08:40:20;23.70;1.00
2611;DHT22;5612;51.134;17.058;2023-06-14T08:42:52;23.80;1.00
2611;DHT22;5612;51.134;17.058;2023-06-14T08:45:22;23.40;1.00
2611;DHT22;5612;51.134;17.058;2023-06-14T08:47:54;23.00;1.00
2611;DHT22;5612;51.134;17.058;2023-06-14T08:50:27;23.00;1.00
2611;DHT22;5612;51.134;17.058;2023-06-14T08:53:01;23.00;1.00
2611;DHT22;5612;51.134;17.058;2023-06-14T08:55:31;22.80;1.00
2611;DHT22;5612;51.134;17.058;2023-06-14T08:58:04;22.70;1.00
2611;DHT22;5612;51.134;17.058;2023-06-14T09:00:33;23.00;1.00
2611;DHT22;5612;51.134;17.058;2023-06-14T09:03:04;24.50;1.00
2611;DHT22;5612;51.134;17.058;2023-06-14T09:05:42;26.00;1.00
2611;DHT22;5612;51.134;17.058;2023-06-14T09:08:12;26.40;1.00
2611;DHT22;5612;51.134;17.058;2023-06-14T09:10:41;25.70;1.00
2611;DHT22;5612;51.134;17.058;2023-06-14T09:13:09;25.70;1.00
2611;DHT22;5612;51.134;17.058;2023-06-14T09:15:38;25.70;1.00
2611;DHT22;5612;51.134;17.058;2023-06-14T09:18:08;25.60;1.00
2611;DHT22;5612;51.134;17.058;2023-06-14T09:20:37;25.50;1.00
2611;DHT22;5612;51.134;17.058;2023-06-14T09:23:07;25.90;1.00
2611;DHT22;5612;51.134;17.058;2023-06-14T09:25:42;26.30;1.00
2611;DHT22;5612;51.134;17.058;2023-06-14T09:28:12;25.80;1.00
2611;DHT22;5612;51.134;17.058;2023-06-14T09:30:41;25.20;1.00
2611;DHT22;5612;51.134;17.058;2023-06-14T09:33:10;24.20;1.00
2611;DHT22;5612;51.134;17.058;2023-06-14T09:35:39;23.60;1.00
2611;DHT22;5612;51.134;17.058;2023-06-14T09:38:09;23.00;1.00
2611;DHT22;5612;51.134;17.058;2023-06-14T09:40:39;22.50;1.00
2611;DHT22;5612;51.134;17.058;2023-06-14T09:43:08;22.10;1.00
2611;DHT22;5612;51.134;17.058;2023-06-14T09:45:38;21.60;1.00
2611;DHT22;5612;51.134;17.058;2023-06-14T09:48:08;21.40;1.00
2611;DHT22;5612;51.134;17.058;2023-06-14T09:50:37;21.00;1.00
2611;DHT22;5612;51.134;17.058;2023-06-14T09:53:11;20.90;1.00
2611;DHT22;5612;51.134;17.058;2023-06-14T09:55:41;21.00;1.00
2611;DHT22;5612;51.134;17.058;2023-06-14T09:58:10;21.30;1.00
2611;DHT22;5612;51.134;17.058;2023-06-14T10:00:40;21.70;1.00
2611;DHT22;5612;51.134;17.058;2023-06-14T10:03:16;22.00;1.00
2611;DHT22;5612;51.134;17.058;2023-06-14T10:05:48;22.60;1.00
2611;DHT22;5612;51.134;17.058;2023-06-14T10:08:24;24.40;1.00
2611;DHT22;5612;51.134;17.058;2023-06-14T10:10:55;26.80;1.00
2611;DHT22;5612;51.134;17.058;2023-06-14T10:13:26;29.50;1.00
2611;DHT22;5612;51.134;17.058;2023-06-14T10:15:58;31.00;1.00
2611;DHT22;5612;51.134;17.058;2023-06-14T10:18:34;31.60;1.00
2611;DHT22;5612;51.134;17.058;2023-06-14T10:21:15;33.20;1.00
2611;DHT22;5612;51.134;17.058;2023-06-14T10:23:49;33.20;1.00
2611;DHT22;5612;51.134;17.058;2023-06-14T10:26:23;32.50;1.00
2611;DHT22;5612;51.134;17.058;2023-06-14T10:29:00;31.90;1.00
2611;DHT22;5612;51.134;17.058;2023-06-14T10:31:43;30.90;1.00
2611;DHT22;5612;51.134;17.058;2023-06-14T10:34:13;30.60;1.00
2611;DHT22;5612;51.134;17.058;2023-06-14T10:37:01;30.50;1.00
2611;DHT22;5612;51.134;17.058;2023-06-14T10:39:32;30.90;1.00
2611;DHT22;5612;51.134;17.058;2023-06-14T10:42:05;30.40;1.00
2611;DHT22;5612;51.134;17.058;2023-06-14T10:44:39;30.20;1.00
2611;DHT22;5612;51.134;17.058;2023-06-14T10:47:11;29.70;1.00
2611;DHT22;5612;51.134;17.058;2023-06-14T10:49:51;29.30;1.00
2611;DHT22;5612;51.134;17.058;2023-06-14T10:52:25;28.40;1.00
2611;DHT22;5612;51.134;17.058;2023-06-14T10:55:01;28.00;1.00
2611;DHT22;5612;51.134;17.058;2023-06-14T10:57:32;28.40;1.00
2611;DHT22;5612;51.134;17.058;2023-06-14T11:00:17;28.10;1.00
2611;DHT22;5612;51.134;17.058;2023-06-14T11:03:36;27.80;1.00
2611;DHT22;5612;51.134;17.058;2023-06-14T11:06:14;27.80;1.00
2611;DHT22;5612;51.134;17.058;2023-06-14T11:11:43;26.90;1.00
2611;DHT22;5612;51.134;17.058;2023-06-14T11:14:13;27.10;1.00
2611;DHT22;5612;51.134;17.058;2023-06-14T11:16:41;26.90;1.00
2611;DHT22;5612;51.134;17.058;2023-06-14T11:19:10;26.90;1.00
2611;DHT22;5612;51.134;17.058;2023-06-14T11:21:40;26.80;1.00
2611;DHT22;5612;51.134;17.058;2023-06-14T11:24:10;26.40;1.00
2611;DHT22;5612;51.134;17.058;2023-06-14T11:26:40;26.00;1.00
2611;DHT22;5612;51.134;17.058;2023-06-14T11:29:10;25.60;1.00
2611;DHT22;5612;51.134;17.058;2023-06-14T11:31:43;25.20;1.00
2611;DHT22;5612;51.134;17.058;2023-06-14T11:34:13;24.80;1.00
2611;DHT22;5612;51.134;17.058;2023-06-14T11:36:43;24.80;1.00
2611;DHT22;5612;51.134;17.058;2023-06-14T11:39:13;24.70;1.00
2611;DHT22;5612;51.134;17.058;2023-06-14T11:41:43;25.30;1.00
2611;DHT22;5612;51.134;17.058;2023-06-14T11:44:14;25.60;1.00
2611;DHT22;5612;51.134;17.058;2023-06-14T11:46:43;27.00;1.00
2611;DHT22;5612;51.134;17.058;2023-06-14T11:49:13;28.10;1.00
2611;DHT22;5612;51.134;17.058;2023-06-14T11:51:43;28.30;1.00
2611;DHT22;5612;51.134;17.058;2023-06-14T11:54:12;27.90;1.00
2611;DHT22;5612;51.134;17.058;2023-06-14T11:56:41;27.20;1.00
2611;DHT22;5612;51.134;17.058;2023-06-14T11:59:10;26.50;1.00
2611;DHT22;5612;51.134;17.058;2023-06-14T12:01:43;26.60;1.00
2611;DHT22;5612;51.134;17.058;2023-06-14T12:04:12;26.80;1.00
2611;DHT22;5612;51.134;17.058;2023-06-14T12:06:41;27.00;1.00
2611;DHT22;5612;51.134;17.058;2023-06-14T12:09:10;26.40;1.00
2611;DHT22;5612;51.134;17.058;2023-06-14T12:11:47;25.80;1.00
2611;DHT22;5612;51.134;17.058;2023-06-14T12:14:30;25.30;1.00
2611;DHT22;5612;51.134;17.058;2023-06-14T12:17:20;24.80;1.00
2611;DHT22;5612;51.134;17.058;2023-06-14T12:19:49;23.70;1.00
2611;DHT22;5612;51.134;17.058;2023-06-14T12:22:18;23.40;1.00
2611;DHT22;5612;51.134;17.058;2023-06-14T12:24:47;23.50;1.00
2611;DHT22;5612;51.134;17.058;2023-06-14T12:27:16;23.40;1.00
2611;DHT22;5612;51.134;17.058;2023-06-14T12:29:47;22.80;1.00
2611;DHT22;5612;51.134;17.058;2023-06-14T12:32:28;22.50;1.00
2611;DHT22;5612;51.134;17.058;2023-06-14T12:34:59;22.30;1.00
2611;DHT22;5612;51.134;17.058;2023-06-14T12:37:29;22.50;1.00
2611;DHT22;5612;51.134;17.058;2023-06-14T12:39:58;22.50;1.00
2611;DHT22;5612;51.134;17.058;2023-06-14T12:42:27;22.40;1.00
2611;DHT22;5612;51.134;17.058;2023-06-14T12:44:56;22.50;1.00
2611;DHT22;5612;51.134;17.058;2023-06-14T12:47:25;22.80;1.00
2611;DHT22;5612;51.134;17.058;2023-06-14T12:49:55;23.00;1.00
2611;DHT22;5612;51.134;17.058;2023-06-14T12:52:27;22.90;1.00
2611;DHT22;5612;51.134;17.058;2023-06-14T12:54:55;23.10;1.00
2611;DHT22;5612;51.134;17.058;2023-06-14T12:57:24;23.40;1.00
2611;DHT22;5612;51.134;17.058;2023-06-14T12:59:55;23.50;1.00
2611;DHT22;5612;51.134;17.058;2023-06-14T13:02:24;23.60;1.00
2611;DHT22;5612;51.134;17.058;2023-06-14T13:04:54;23.80;1.00
2611;DHT22;5612;51.134;17.058;2023-06-14T13:07:25;23.80;1.00
2611;DHT22;5612;51.134;17.058;2023-06-14T13:09:54;24.10;1.00
2611;DHT22;5612;51.134;17.058;2023-06-14T13:12:23;24.20;1.00
2611;DHT22;5612;51.134;17.058;2023-06-14T13:14:52;24.20;1.00
2611;DHT22;5612;51.134;17.058;2023-06-14T13:17:21;24.40;1.00
2611;DHT22;5612;51.134;17.058;2023-06-14T13:19:49;23.80;1.00
2611;DHT22;5612;51.134;17.058;2023-06-14T13:22:20;23.60;1.00
2611;DHT22;5612;51.134;17.058;2023-06-14T13:24:49;24.10;1.00
2611;DHT22;5612;51.134;17.058;2023-06-14T13:27:18;24.30;1.00
2611;DHT22;5612;51.134;17.058;2023-06-14T13:29:47;24.40;1.00
2611;DHT22;5612;51.134;17.058;2023-06-14T13:32:16;24.30;1.00
2611;DHT22;5612;51.134;17.058;2023-06-14T13:34:44;24.30;1.00
2611;DHT22;5612;51.134;17.058;2023-06-14T13:37:13;24.20;1.00
2611;DHT22;5612;51.134;17.058;2023-06-14T13:39:43;24.30;1.00
2611;DHT22;5612;51.134;17.058;2023-06-14T13:42:12;24.20;1.00
2611;DHT22;5612;51.134;17.058;2023-06-14T13:44:41;23.90;1.00
2611;DHT22;5612;51.134;17.058;2023-06-14T13:47:10;24.10;1.00
2611;DHT22;5612;51.134;17.058;2023-06-14T13:49:39;24.10;1.00
2611;DHT22;5612;51.134;17.058;2023-06-14T13:52:08;23.80;1.00
2611;DHT22;5612;51.134;17.058;2023-06-14T13:54:38;24.00;1.00
2611;DHT22;5612;51.134;17.058;2023-06-14T13:57:09;24.10;1.00
2611;DHT22;5612;51.134;17.058;2023-06-14T13:59:40;24.20;1.00
2611;DHT22;5612;51.134;17.058;2023-06-14T14:02:11;24.50;1.00
2611;DHT22;5612;51.134;17.058;2023-06-14T14:04:41;24.30;1.00
2611;DHT22;5612;51.134;17.058;2023-06-14T14:07:10;24.60;1.00
2611;DHT22;5612;51.134;17.058;2023-06-14T14:09:42;24.90;1.00
2611;DHT22;5612;51.134;17.058;2023-06-14T14:12:13;24.60;1.00
2611;DHT22;5612;51.134;17.058;2023-06-14T14:14:42;24.50;1.00
2611;DHT22;5612;51.134;17.058;2023-06-14T14:17:11;24.40;1.00
2611;DHT22;5612;51.134;17.058;2023-06-14T14:19:40;24.20;1.00
2611;DHT22;5612;51.134;17.058;2023-06-14T14:22:09;24.10;1.00
2611;DHT22;5612;51.134;17.058;2023-06-14T14:24:38;23.80;1.00
2611;DHT22;5612;51.134;17.058;2023-06-14T14:27:07;23.80;1.00
2611;DHT22;5612;51.134;17.058;2023-06-14T14:29:37;23.50;1.00
2611;DHT22;5612;51.134;17.058;2023-06-14T14:32:07;23.00;1.00
2611;DHT22;5612;51.134;17.058;2023-06-14T14:34:40;22.90;1.00
2611;DHT22;5612;51.134;17.058;2023-06-14T14:37:09;22.70;1.00
2611;DHT22;5612;51.134;17.058;2023-06-14T14:39:37;22.40;1.00
2611;DHT22;5612;51.134;17.058;2023-06-14T14:42:07;22.20;1.00
2611;DHT22;5612;51.134;17.058;2023-06-14T14:44:37;22.20;1.00
2611;DHT22;5612;51.134;17.058;2023-06-14T14:47:06;21.70;1.00
2611;DHT22;5612;51.134;17.058;2023-06-14T14:49:35;21.50;1.00
2611;DHT22;5612;51.134;17.058;2023-06-14T14:52:05;21.60;1.00
2611;DHT22;5612;51.134;17.058;2023-06-14T14:54:49;21.70;1.00
2611;DHT22;5612;51.134;17.058;2023-06-14T14:57:18;21.70;1.00
2611;DHT22;5612;51.134;17.058;2023-06-14T14:59:49;22.00;1.00
2611;DHT22;5612;51.134;17.058;2023-06-14T15:02:18;22.40;1.00
2611;DHT22;5612;51.134;17.058;2023-06-14T15:04:47;22.80;1.00
2611;DHT22;5612;51.134;17.058;2023-06-14T15:07:15;23.10;1.00
2611;DHT22;5612;51.134;17.058;2023-06-14T15:09:46;23.10;1.00
2611;DHT22;5612;51.134;17.058;2023-06-14T15:12:19;22.80;1.00
2611;DHT22;5612;51.134;17.058;2023-06-14T15:14:52;22.80;1.00
2611;DHT22;5612;51.134;17.058;2023-06-14T15:17:21;22.70;1.00
2611;DHT22;5612;51.134;17.058;2023-06-14T15:19:53;22.90;1.00
2611;DHT22;5612;51.134;17.058;2023-06-14T15:22:24;22.90;1.00
2611;DHT22;5612;51.134;17.058;2023-06-14T15:24:53;23.30;1.00
2611;DHT22;5612;51.134;17.058;2023-06-14T15:27:22;23.40;1.00
2611;DHT22;5612;51.134;17.058;2023-06-14T15:29:55;23.00;1.00
2611;DHT22;5612;51.134;17.058;2023-06-14T15:32:23;22.90;1.00
2611;DHT22;5612;51.134;17.058;2023-06-14T15:34:52;23.00;1.00
2611;DHT22;5612;51.134;17.058;2023-06-14T15:37:21;23.00;1.00
2611;DHT22;5612;51.134;17.058;2023-06-14T15:39:50;22.80;1.00
2611;DHT22;5612;51.134;17.058;2023-06-14T15:42:18;22.80;1.00
2611;DHT22;5612;51.134;17.058;2023-06-14T15:44:47;22.60;1.00
2611;DHT22;5612;51.134;17.058;2023-06-14T15:47:20;22.50;1.00
2611;DHT22;5612;51.134;17.058;2023-06-14T15:49:52;22.40;1.00
2611;DHT22;5612;51.134;17.058;2023-06-14T15:52:23;22.20;1.00
2611;DHT22;5612;51.134;17.058;2023-06-14T15:54:52;21.90;1.00
2611;DHT22;5612;51.134;17.058;2023-06-14T15:57:22;22.10;1.00
2611;DHT22;5612;51.134;17.058;2023-06-14T15:59:52;22.20;1.00
2611;DHT22;5612;51.134;17.058;2023-06-14T16:02:22;22.30;1.00
2611;DHT22;5612;51.134;17.058;2023-06-14T16:04:51;22.40;1.00
2611;DHT22;5612;51.134;17.058;2023-06-14T16:07:20;22.60;1.00
2611;DHT22;5612;51.134;17.058;2023-06-14T16:09:50;22.60;1.00
2611;DHT22;5612;51.134;17.058;2023-06-14T16:12:22;22.60;1.00
2611;DHT22;5612;51.134;17.058;2023-06-14T16:14:51;22.60;1.00
2611;DHT22;5612;51.134;17.058;2023-06-14T16:17:23;22.60;1.00
2611;DHT22;5612;51.134;17.058;2023-06-14T16:19:52;22.30;1.00
2611;DHT22;5612;51.134;17.058;2023-06-14T16:22:21;22.20;1.00